Time;durP1;ratioP1;P1;durP2;ratioP2;P2;SDS_P1;SDS_P2;PMS_P1;PMS_P2;Temp;Humidity;BMP_temperature;BMP_pressure;BME280_temperature;BME280_humidity;BME280_pressure;Samples;Min_cycle;Max_cycle;Signal;HPM_P1;HPM_P2
2022/03/30 00:01:13;;;;;;;0.50;0.50;;;3.50;99.90;;;;;;5033044;28;20453;-68
2022/03/30 00:04:00;;;;;;;0.50;0.50;;;3.40;99.90;;;;;;5034194;28;20736;-69
2022/03/30 00:06:49;;;;;;;0.50;0.50;;;3.40;99.90;;;;;;5034419;28;20798;-69
2022/03/30 00:09:36;;;;;;;0.50;0.50;;;3.40;99.90;;;;;;5033901;28;20475;-69
2022/03/30 00:12:23;;;;;;;0.50;0.50;;;3.40;99.90;;;;;;5032537;28;20449;-68
2022/03/30 00:15:10;;;;;;;0.40;0.40;;;3.30;99.90;;;;;;5033628;28;20426;-69
2022/03/30 00:17:57;;;;;;;0.50;0.50;;;3.30;99.90;;;;;;5034076;28;20433;-68
2022/03/30 00:20:44;;;;;;;0.50;0.50;;;3.20;99.90;;;;;;5033647;28;20453;-68
2022/03/30 00:23:33;;;;;;;0.50;0.50;;;3.20;99.90;;;;;;5033303;28;20800;-68
2022/03/30 00:26:20;;;;;;;0.50;0.50;;;3.20;99.90;;;;;;5034325;28;20958;-68
2022/03/30 00:29:07;;;;;;;0.50;0.50;;;3.20;99.90;;;;;;5033847;28;20425;-68
2022/03/30 00:31:54;;;;;;;0.50;0.50;;;3.20;99.90;;;;;;5033250;28;20441;-68
2022/03/30 00:34:41;;;;;;;0.50;0.50;;;3.20;99.90;;;;;;5033525;28;20437;-69
2022/03/30 00:37:28;;;;;;;0.50;0.50;;;3.20;99.90;;;;;;5033982;28;21110;-68
2022/03/30 00:40:17;;;;;;;0.50;0.50;;;3.20;99.90;;;;;;5033003;28;20468;-69
2022/03/30 00:43:04;;;;;;;0.50;0.50;;;3.10;99.90;;;;;;5033383;28;20422;-68
2022/03/30 00:45:51;;;;;;;0.50;0.50;;;3.10;99.90;;;;;;5033224;28;20428;-69
2022/03/30 00:48:38;;;;;;;0.50;0.50;;;3.10;99.90;;;;;;5034259;28;20472;-68
2022/03/30 00:51:25;;;;;;;0.50;0.50;;;3.10;99.90;;;;;;5033682;28;20449;-69
2022/03/30 00:54:12;;;;;;;0.40;0.40;;;3.10;99.90;;;;;;5034604;28;20444;-68
2022/03/30 00:57:01;;;;;;;0.47;0.47;;;3.10;99.90;;;;;;5032995;28;20418;-70
2022/03/30 00:59:49;;;;;;;0.50;0.50;;;3.10;99.90;;;;;;5033483;28;20421;-68
2022/03/30 01:02:39;;;;;;;0.47;0.47;;;3.00;99.90;;;;;;5033454;28;20460;-68
2022/03/30 01:05:26;;;;;;;0.47;0.47;;;2.90;99.90;;;;;;5033463;28;20453;-68
2022/03/30 01:08:13;;;;;;;0.40;0.40;;;2.90;99.90;;;;;;5033347;28;20464;-68
2022/03/30 01:11:00;;;;;;;0.50;0.50;;;2.80;99.90;;;;;;5032798;28;20453;-71
2022/03/30 01:13:49;;;;;;;0.50;0.50;;;2.80;99.90;;;;;;5032493;28;20426;-68
2022/03/30 01:16:36;;;;;;;0.50;0.50;;;2.70;99.90;;;;;;5032726;28;20480;-68
2022/03/30 01:19:29;;;;;;;0.50;0.50;;;2.70;99.90;;;;;;5033005;28;20433;-68
2022/03/30 01:22:17;;;;;;;0.50;0.50;;;2.70;99.90;;;;;;5032188;28;20470;-68
2022/03/30 01:25:05;;;;;;;0.50;0.50;;;2.60;99.90;;;;;;5035529;28;20429;-68
2022/03/30 01:27:52;;;;;;;0.50;0.50;;;2.60;99.90;;;;;;5036772;28;20442;-67
2022/03/30 01:33:44;;;;;;;0.50;0.50;;;2.60;99.90;;;;;;5035398;28;20412;-68
2022/03/30 01:36:31;;;;;;;0.50;0.50;;;2.50;99.90;;;;;;5036428;28;20437;-69
2022/03/30 01:39:19;;;;;;;0.50;0.50;;;2.50;99.90;;;;;;5036204;28;20425;-68
2022/03/30 01:42:07;;;;;;;0.50;0.50;;;2.50;99.90;;;;;;5035979;28;20473;-69
2022/03/30 01:44:55;;;;;;;0.50;0.50;;;2.40;99.90;;;;;;5035738;28;20424;-69
2022/03/30 01:47:47;;;;;;;0.50;0.50;;;2.40;99.90;;;;;;5035557;28;20961;-70
2022/03/30 01:50:36;;;;;;;0.50;0.50;;;2.40;99.90;;;;;;5035493;28;20457;-69
2022/03/30 01:53:23;;;;;;;0.50;0.50;;;2.40;99.90;;;;;;5037097;28;20429;-68
2022/03/30 01:56:12;;;;;;;0.50;0.50;;;2.40;99.90;;;;;;5056112;28;20425;-68
2022/03/30 01:58:59;;;;;;;0.40;0.40;;;2.30;99.90;;;;;;5056834;28;20424;-67
2022/03/30 02:01:46;;;;;;;0.47;0.47;;;2.30;99.90;;;;;;5055639;28;20468;-67
2022/03/30 02:04:34;;;;;;;0.40;0.40;;;2.20;99.90;;;;;;5056393;28;20436;-68
2022/03/30 02:07:21;;;;;;;0.50;0.50;;;2.20;99.90;;;;;;5057318;28;20433;-68
2022/03/30 02:10:09;;;;;;;0.43;0.43;;;2.10;99.90;;;;;;5055870;28;20441;-69
2022/03/30 02:12:58;;;;;;;1.67;1.57;;;2.10;99.90;;;;;;5054855;28;20417;-68
2022/03/30 02:15:45;;;;;;;0.47;0.47;;;2.00;99.90;;;;;;5055325;28;20429;-68
2022/03/30 02:18:32;;;;;;;0.50;0.50;;;2.00;99.90;;;;;;5055651;28;20432;-68
2022/03/30 02:21:19;;;;;;;0.50;0.50;;;2.00;99.90;;;;;;5055183;28;20445;-67
2022/03/30 02:24:07;;;;;;;0.43;0.43;;;1.90;99.90;;;;;;5055478;28;20455;-68
2022/03/30 02:26:54;;;;;;;0.50;0.50;;;1.90;99.90;;;;;;5055700;28;20463;-67
2022/03/30 02:29:42;;;;;;;0.50;0.50;;;1.90;99.90;;;;;;5055050;28;20435;-67
2022/03/30 02:32:29;;;;;;;0.50;0.50;;;1.90;99.90;;;;;;5054641;28;20447;-68
2022/03/30 02:35:18;;;;;;;0.50;0.50;;;1.80;99.90;;;;;;5054024;28;20441;-68
2022/03/30 02:38:05;;;;;;;0.50;0.50;;;1.80;99.90;;;;;;5055297;28;20428;-67
2022/03/30 02:40:52;;;;;;;0.50;0.50;;;1.60;99.90;;;;;;5054692;28;20455;-69
2022/03/30 02:43:40;;;;;;;0.50;0.50;;;1.60;99.90;;;;;;5055545;28;20952;-68
2022/03/30 02:46:28;;;;;;;0.50;0.50;;;1.50;99.90;;;;;;5073106;28;20421;-67
2022/03/30 02:49:15;;;;;;;0.60;0.60;;;1.40;99.90;;;;;;5073628;28;20460;-68
2022/03/30 02:52:02;;;;;;;0.50;0.50;;;1.40;99.90;;;;;;5121103;22;20521;-63
2022/03/30 02:54:49;;;;;;;0.40;0.40;;;1.40;99.90;;;;;;5104258;28;20604;-64
2022/03/30 02:57:36;;;;;;;0.40;0.40;;;1.40;99.90;;;;;;5104157;28;20431;-64
2022/03/30 03:00:23;;;;;;;0.40;0.40;;;1.40;99.90;;;;;;5099239;28;20443;-64
2022/03/30 03:03:11;;;;;;;0.40;0.40;;;1.40;99.90;;;;;;5081982;28;20491;-63
2022/03/30 03:05:58;;;;;;;0.40;0.40;;;1.40;99.90;;;;;;5083880;28;20421;-64
2022/03/30 03:08:45;;;;;;;0.40;0.40;;;1.50;99.90;;;;;;5084687;28;20916;-64
2022/03/30 03:11:32;;;;;;;0.40;0.40;;;1.50;99.90;;;;;;5082103;28;20443;-64
2022/03/30 03:14:19;;;;;;;0.40;0.40;;;1.50;99.90;;;;;;5084381;28;20427;-64
2022/03/30 03:17:06;;;;;;;0.40;0.40;;;1.50;99.90;;;;;;5081392;28;20420;-64
2022/03/30 03:19:55;;;;;;;0.40;0.40;;;1.50;99.90;;;;;;5085627;28;20503;-64
2022/03/30 03:22:42;;;;;;;0.40;0.40;;;1.60;99.90;;;;;;5083310;28;20452;-64
2022/03/30 03:25:29;;;;;;;0.40;0.40;;;1.50;99.90;;;;;;5083928;28;20481;-64
2022/03/30 03:28:16;;;;;;;0.40;0.40;;;1.50;99.90;;;;;;5085654;28;20459;-66
2022/03/30 03:31:04;;;;;;;0.40;0.40;;;1.40;99.90;;;;;;5082230;28;20467;-64
2022/03/30 03:33:51;;;;;;;0.40;0.40;;;1.40;99.90;;;;;;5082022;28;20421;-64
2022/03/30 03:36:40;;;;;;;0.40;0.40;;;1.40;99.90;;;;;;5081466;28;20428;-64
2022/03/30 03:39:27;;;;;;;0.40;0.40;;;1.40;99.90;;;;;;5082755;28;20420;-64
2022/03/30 03:42:14;;;;;;;0.50;0.50;;;1.30;99.90;;;;;;5084924;28;20816;-64
2022/03/30 03:45:01;;;;;;;0.40;0.40;;;1.30;99.90;;;;;;5083871;28;20427;-64
2022/03/30 03:47:49;;;;;;;0.40;0.40;;;1.30;99.90;;;;;;5078952;28;20478;-65
2022/03/30 03:50:36;;;;;;;0.40;0.40;;;1.30;99.90;;;;;;5083422;28;20463;-64
2022/03/30 03:53:24;;;;;;;0.40;0.40;;;1.20;99.90;;;;;;5084781;28;20424;-64
2022/03/30 03:56:11;;;;;;;0.40;0.40;;;1.20;99.90;;;;;;5082888;28;20423;-64
2022/03/30 03:58:58;;;;;;;0.40;0.40;;;1.10;99.90;;;;;;5082322;28;20424;-64
2022/03/30 04:01:45;;;;;;;0.40;0.40;;;1.10;99.90;;;;;;5082598;28;20451;-67
2022/03/30 04:04:32;;;;;;;0.40;0.40;;;1.10;99.90;;;;;;5084339;28;20424;-65
2022/03/30 04:07:19;;;;;;;0.40;0.40;;;1.10;99.90;;;;;;5080121;28;20431;-65
2022/03/30 04:10:09;;;;;;;0.40;0.40;;;1.10;99.90;;;;;;5079081;28;20420;-64
2022/03/30 04:12:56;;;;;;;0.40;0.40;;;1.10;99.90;;;;;;5083040;28;20416;-64
2022/03/30 04:15:43;;;;;;;0.40;0.40;;;1.10;99.90;;;;;;5072509;28;20420;-65
2022/03/30 04:18:30;;;;;;;0.40;0.40;;;1.20;99.90;;;;;;5072683;28;20424;-65
2022/03/30 04:21:17;;;;;;;0.40;0.40;;;1.30;99.90;;;;;;5071733;28;20436;-64
2022/03/30 04:24:04;;;;;;;0.40;0.40;;;1.40;99.90;;;;;;5071593;28;20425;-65
2022/03/30 04:26:53;;;;;;;0.40;0.40;;;1.50;99.90;;;;;;5073504;28;20501;-65
2022/03/30 04:29:40;;;;;;;0.40;0.40;;;1.50;99.90;;;;;;5071520;28;20416;-65
2022/03/30 04:32:27;;;;;;;0.40;0.40;;;1.70;99.90;;;;;;5071021;28;20423;-65
2022/03/30 04:35:17;;;;;;;0.40;0.40;;;1.80;99.90;;;;;;5071536;28;20424;-65
2022/03/30 04:38:05;;;;;;;0.40;0.40;;;1.80;99.90;;;;;;5073600;28;20412;-64
2022/03/30 04:40:52;;;;;;;0.40;0.40;;;1.90;99.90;;;;;;5072995;28;20442;-65
2022/03/30 04:43:41;;;;;;;0.40;0.40;;;1.90;99.90;;;;;;5071058;28;20480;-65
2022/03/30 04:46:28;;;;;;;0.40;0.40;;;2.00;99.90;;;;;;5073576;28;20443;-65
2022/03/30 04:49:15;;;;;;;0.40;0.40;;;2.00;99.90;;;;;;5071654;28;21115;-65
2022/03/30 04:52:02;;;;;;;0.40;0.40;;;2.00;99.90;;;;;;5070966;28;20830;-65
2022/03/30 04:54:49;;;;;;;0.40;0.40;;;2.10;99.90;;;;;;5073096;28;20431;-65
2022/03/30 04:57:36;;;;;;;0.40;0.40;;;2.10;99.90;;;;;;5070980;28;20425;-65
2022/03/30 05:00:24;;;;;;;0.40;0.40;;;2.10;99.90;;;;;;5075333;28;20451;-65
2022/03/30 05:03:11;;;;;;;0.40;0.40;;;2.10;99.90;;;;;;5079069;28;20475;-64
2022/03/30 05:05:59;;;;;;;0.40;0.40;;;2.00;99.90;;;;;;5079528;28;20932;-65
2022/03/30 05:08:46;;;;;;;0.40;0.40;;;2.00;99.90;;;;;;5077226;28;20487;-64
2022/03/30 05:11:33;;;;;;;0.40;0.40;;;2.00;99.90;;;;;;5076565;28;20440;-64
2022/03/30 05:14:21;;;;;;;0.40;0.40;;;2.00;99.90;;;;;;5076142;28;20420;-64
2022/03/30 05:17:10;;;;;;;0.40;0.40;;;2.00;99.90;;;;;;5080480;28;20416;-64
2022/03/30 05:19:58;;;;;;;0.40;0.40;;;;;;;;;;5086770;28;20452;-65
2022/03/30 05:22:45;;;;;;;0.40;0.40;;;2.10;99.90;;;;;;5091786;28;20812;-64
2022/03/30 05:25:33;;;;;;;0.40;0.40;;;2.10;99.90;;;;;;5091575;28;20458;-63
2022/03/30 05:28:20;;;;;;;0.40;0.40;;;2.30;99.90;;;;;;5092888;28;20812;-64
2022/03/30 05:31:07;;;;;;;0.40;0.40;;;2.40;99.90;;;;;;5085793;28;20443;-64
2022/03/30 05:33:55;;;;;;;0.40;0.40;;;2.50;99.90;;;;;;5084827;28;20426;-64
2022/03/30 05:36:42;;;;;;;0.40;0.40;;;2.70;99.90;;;;;;5076941;28;20839;-63
2022/03/30 05:39:31;;;;;;;0.40;0.40;;;2.80;99.90;;;;;;5061269;28;20435;-64
2022/03/30 05:42:17;;;;;;;1.07;1.07;;;2.90;99.90;;;;;;5063732;28;20462;-64
2022/03/30 05:45:05;;;;;;;0.40;0.40;;;3.00;99.90;;;;;;5077990;28;20432;-64
2022/03/30 05:47:53;;;;;;;0.40;0.40;;;3.10;99.90;;;;;;5077512;28;20427;-63
2022/03/30 05:50:41;;;;;;;0.40;0.40;;;3.30;99.90;;;;;;5076570;28;20463;-63
2022/03/30 05:53:28;;;;;;;0.40;0.40;;;3.40;99.90;;;;;;5076302;28;20424;-64
2022/03/30 05:56:16;;;;;;;0.40;0.40;;;3.50;99.90;;;;;;5077127;28;20428;-64
2022/03/30 05:59:03;;;;;;;0.40;0.40;;;3.70;99.90;;;;;;5077758;28;21078;-64
2022/03/30 06:01:50;;;;;;;0.40;0.40;;;3.60;99.90;;;;;;5071116;28;20470;-63
2022/03/30 06:04:38;;;;;;;0.50;0.50;;;3.70;99.90;;;;;;5058257;28;20431;-65
2022/03/30 06:07:26;;;;;;;0.40;0.40;;;3.60;99.90;;;;;;5056823;28;20775;-64
2022/03/30 06:10:13;;;;;;;0.40;0.40;;;3.80;99.90;;;;;;5076266;28;20420;-63
2022/03/30 06:13:02;;;;;;;0.40;0.40;;;3.80;99.90;;;;;;5072530;28;20436;-64
2022/03/30 06:15:49;;;;;;;0.40;0.40;;;4.00;99.90;;;;;;5067827;28;20960;-64
2022/03/30 06:18:36;;;;;;;0.40;0.40;;;4.10;99.90;;;;;;5065803;28;20452;-64
2022/03/30 06:21:23;;;;;;;0.40;0.40;;;4.20;99.90;;;;;;5060992;28;20463;-65
2022/03/30 06:24:13;;;;;;;0.40;0.40;;;4.30;99.90;;;;;;5072507;28;20471;-64
2022/03/30 06:27:00;;;;;;;0.40;0.40;;;4.30;99.90;;;;;;5057423;28;20429;-64
2022/03/30 06:29:47;;;;;;;0.40;0.40;;;4.20;99.90;;;;;;5055372;28;20420;-64
2022/03/30 06:32:35;;;;;;;0.40;0.40;;;4.20;99.90;;;;;;5055597;28;20428;-64
2022/03/30 06:35:23;;;;;;;0.40;0.40;;;4.30;99.90;;;;;;5057201;28;20448;-65
2022/03/30 06:38:10;;;;;;;0.40;0.40;;;4.30;99.90;;;;;;5055082;28;20883;-65
2022/03/30 06:40:58;;;;;;;0.40;0.40;;;4.30;99.90;;;;;;5062030;28;20470;-64
2022/03/30 06:43:46;;;;;;;0.40;0.40;;;4.20;99.90;;;;;;5061127;28;20465;-64
2022/03/30 06:46:37;;;;;;;0.40;0.40;;;4.10;99.90;;;;;;5073065;28;20460;-64
2022/03/30 06:49:24;;;;;;;0.40;0.40;;;4.10;99.90;;;;;;5056532;28;20428;-64
2022/03/30 06:52:12;;;;;;;0.40;0.40;;;4.10;99.90;;;;;;5054645;28;20460;-64
2022/03/30 06:54:59;;;;;;;0.40;0.40;;;4.20;99.90;;;;;;5054250;28;20425;-65
2022/03/30 06:57:48;;;;;;;0.40;0.40;;;4.20;99.90;;;;;;5060311;28;20454;-64
2022/03/30 07:00:35;;;;;;;0.40;0.40;;;4.40;99.90;;;;;;5068894;28;20467;-63
2022/03/30 07:03:26;;;;;;;0.40;0.40;;;4.40;99.90;;;;;;5073773;28;20467;-64
2022/03/30 07:06:13;;;;;;;0.40;0.40;;;4.50;99.90;;;;;;5068852;28;20521;-64
2022/03/30 07:12:04;;;;;;;0.40;0.40;;;4.80;99.90;;;;;;5056315;28;20471;-65
2022/03/30 07:14:52;;;;;;;0.40;0.40;;;5.00;99.90;;;;;;5074530;28;20419;-65
2022/03/30 07:17:50;;;;;;;0.40;0.40;;;5.20;99.90;;;;;;5073583;28;20420;-64
2022/03/30 07:20:38;;;;;;;0.40;0.40;;;5.30;99.90;;;;;;5073105;28;20451;-64
2022/03/30 07:23:26;;;;;;;0.40;0.40;;;5.30;99.90;;;;;;5072556;28;20463;-64
2022/03/30 07:26:13;;;;;;;0.40;0.40;;;5.40;99.90;;;;;;5073845;28;20423;-65
2022/03/30 07:29:00;;;;;;;0.40;0.40;;;5.40;99.90;;;;;;5075394;28;21055;-65
2022/03/30 07:31:48;;;;;;;0.40;0.40;;;5.40;99.90;;;;;;5073595;28;20447;-65
2022/03/30 07:34:36;;;;;;;0.40;0.40;;;5.50;99.90;;;;;;5074996;28;20427;-65
2022/03/30 07:37:23;;;;;;;0.40;0.40;;;5.60;99.90;;;;;;5073816;28;20486;-64
2022/03/30 07:40:12;;;;;;;0.80;0.80;;;5.80;99.90;;;;;;5073151;28;20420;-65
2022/03/30 07:42:59;;;;;;;0.40;0.40;;;5.80;99.90;;;;;;5072432;28;20884;-64
2022/03/30 07:45:46;;;;;;;0.40;0.40;;;5.90;99.90;;;;;;5063243;28;20416;-65
2022/03/30 07:48:34;;;;;;;0.40;0.40;;;6.10;99.90;;;;;;5077160;28;20423;-65
2022/03/30 07:51:21;;;;;;;0.40;0.40;;;6.20;99.90;;;;;;5091756;28;20459;-65
2022/03/30 07:54:08;;;;;;;0.40;0.40;;;6.30;99.90;;;;;;5092021;28;20423;-65
2022/03/30 07:56:55;;;;;;;0.40;0.40;;;6.40;99.90;;;;;;5091792;28;20487;-65
2022/03/30 07:59:43;;;;;;;0.40;0.40;;;6.60;99.90;;;;;;5089658;28;20419;-66
2022/03/30 08:02:30;;;;;;;0.40;0.40;;;6.90;99.90;;;;;;5087011;28;20435;-65
2022/03/30 08:05:18;;;;;;;0.40;0.40;;;7.10;99.90;;;;;;5076224;28;20867;-65
2022/03/30 08:08:07;;;;;;;0.40;0.40;;;7.30;99.90;;;;;;5073805;28;20430;-65
2022/03/30 08:10:54;;;;;;;0.40;0.40;;;7.40;99.90;;;;;;5074120;28;20452;-65
2022/03/30 08:13:41;;;;;;;0.40;0.40;;;7.50;99.90;;;;;;5071444;28;20481;-65
2022/03/30 08:16:28;;;;;;;0.40;0.40;;;7.70;99.90;;;;;;5061614;28;20428;-65
2022/03/30 08:19:15;;;;;;;0.40;0.40;;;7.70;99.90;;;;;;5061581;28;20438;-65
2022/03/30 08:25:10;;;;;;;0.53;0.53;;;7.70;99.90;;;;;;5086414;28;20463;-65
2022/03/30 08:27:57;;;;;;;0.40;0.40;;;7.60;99.90;;;;;;5080836;28;20423;-65
2022/03/30 08:30:44;;;;;;;0.40;0.40;;;7.60;99.90;;;;;;5084804;28;20438;-64
2022/03/30 08:33:31;;;;;;;0.40;0.40;;;7.80;99.90;;;;;;5077868;28;20423;-65
2022/03/30 08:36:20;;;;;;;0.40;0.40;;;7.90;99.90;;;;;;5086691;28;20454;-65
2022/03/30 08:39:11;;;;;;;0.40;0.40;;;8.20;99.90;;;;;;5086099;28;20427;-65
2022/03/30 08:41:58;;;;;;;0.40;0.40;;;8.50;99.90;;;;;;5087301;28;20521;-65
2022/03/30 08:44:47;;;;;;;0.40;0.40;;;8.80;99.90;;;;;;5085407;28;20482;-65
2022/03/30 08:47:35;;;;;;;0.40;0.40;;;8.90;99.90;;;;;;5079490;28;20501;-65
2022/03/30 08:50:22;;;;;;;0.40;0.40;;;8.70;99.90;;;;;;5074806;28;20487;-65
2022/03/30 08:53:09;;;;;;;0.40;0.40;;;8.90;99.90;;;;;;5078956;28;20943;-65
2022/03/30 08:55:57;;;;;;;0.40;0.40;;;9.10;99.90;;;;;;5086365;28;20791;-64
2022/03/30 08:58:44;;;;;;;0.50;0.50;;;9.40;99.90;;;;;;5073252;28;20855;-65
2022/03/30 09:01:33;;;;;;;0.40;0.40;;;9.60;99.90;;;;;;5081590;28;20438;-65
2022/03/30 09:04:21;;;;;;;0.40;0.40;;;9.60;99.90;;;;;;5086161;28;20544;-65
2022/03/30 09:07:10;;;;;;;0.40;0.40;;;9.70;99.90;;;;;;5085549;28;20423;-65
2022/03/30 09:10:00;;;;;;;0.40;0.40;;;10.00;99.90;;;;;;5079120;28;20439;-64
2022/03/30 09:12:51;;;;;;;0.40;0.40;;;10.40;99.90;;;;;;5074923;28;21365;-65
2022/03/30 09:15:39;;;;;;;0.40;0.40;;;10.80;99.90;;;;;;5080578;28;20439;-65
2022/03/30 09:18:26;;;;;;;0.40;0.40;;;11.10;99.90;;;;;;5074975;28;20778;-65
2022/03/30 09:21:13;;;;;;;0.40;0.40;;;11.40;99.30;;;;;;5069196;28;20478;-65
2022/03/30 09:24:00;;;;;;;0.40;0.40;;;11.50;96.80;;;;;;5073901;28;20467;-66
2022/03/30 09:26:50;;;;;;;0.40;0.40;;;11.40;95.60;;;;;;5070582;28;20435;-65
2022/03/30 09:29:39;;;;;;;0.40;0.40;;;11.40;94.30;;;;;;5076162;28;20435;-65
2022/03/30 09:32:26;;;;;;;0.40;0.40;;;11.70;93.90;;;;;;5074854;28;20434;-65
2022/03/30 09:35:24;;;;;;;0.40;0.40;;;11.90;93.40;;;;;;5075691;28;20420;-65
2022/03/30 09:38:13;;;;;;;0.50;0.50;;;12.10;91.70;;;;;;5068458;28;20559;-65
2022/03/30 09:41:03;;;;;;;0.40;0.40;;;12.10;90.80;;;;;;5071809;28;20548;-65
2022/03/30 09:44:01;;;;;;;0.40;0.40;;;12.20;90.80;;;;;;5082488;28;20469;-66
2022/03/30 09:46:54;;;;;;;0.40;0.40;;;12.10;90.40;;;;;;5081442;28;20459;-65
2022/03/30 09:49:44;;;;;;;0.40;0.40;;;12.20;90.30;;;;;;5078298;28;20513;-64
2022/03/30 09:52:33;;;;;;;0.40;0.40;;;12.40;90.40;;;;;;5080195;28;20439;-65
2022/03/30 09:55:24;;;;;;;0.40;0.40;;;12.80;90.90;;;;;;5076426;28;20431;-65
2022/03/30 09:58:11;;;;;;;0.40;0.40;;;12.90;90.30;;;;;;5075399;28;20423;-64
2022/03/30 10:01:17;;;;;;;0.50;0.50;;;13.20;88.90;;;;;;5081951;28;20448;-66
2022/03/30 10:04:08;;;;;;;0.40;0.40;;;13.10;85.20;;;;;;5078895;28;20474;-66
2022/03/30 10:06:55;;;;;;;0.40;0.40;;;13.10;85.20;;;;;;5074380;28;20423;-65
2022/03/30 10:09:43;;;;;;;0.40;0.40;;;12.90;83.30;;;;;;5072682;28;20443;-65
2022/03/30 10:12:31;;;;;;;0.40;0.40;;;13.10;84.60;;;;;;5072328;28;20446;-65
2022/03/30 10:15:18;;;;;;;0.40;0.40;;;13.20;83.00;;;;;;5075486;28;20446;-66
2022/03/30 10:18:05;;;;;;;0.40;0.40;;;13.00;81.70;;;;;;5076340;28;20777;-65
2022/03/30 10:21:07;;;;;;;0.40;0.40;;;12.80;81.50;;;;;;5073881;28;20456;-66
2022/03/30 10:24:27;;;;;;;0.47;0.47;;;13.00;83.40;;;;;;5068258;28;20466;-66
2022/03/30 10:27:21;;;;;;;0.40;0.40;;;13.20;81.80;;;;;;5084459;28;20458;-64
2022/03/30 10:30:11;;;;;;;0.40;0.40;;;12.90;81.70;;;;;;5075494;28;20432;-65
2022/03/30 10:32:59;;;;;;;0.40;0.40;;;12.80;81.70;;;;;;5067631;28;20416;-65
2022/03/30 10:35:48;;;;;;;0.40;0.40;;;12.60;82.80;;;;;;5074803;28;20509;-66
2022/03/30 10:38:36;;;;;;;0.40;0.40;;;12.70;83.60;;;;;;5072638;28;20455;-65
2022/03/30 10:41:48;;;;;;;0.40;0.40;;;12.90;83.20;;;;;;5077257;28;20824;-66
2022/03/30 10:44:45;;;;;;;0.40;0.40;;;12.50;82.30;;;;;;5076270;28;20468;-65
2022/03/30 10:47:32;;;;;;;0.40;0.40;;;12.30;83.20;;;;;;5074417;28;20427;-67
2022/03/30 10:50:33;;;;;;;0.50;0.50;;;12.60;83.30;;;;;;5071819;28;20454;-65
2022/03/30 10:53:41;;;;;;;0.40;0.40;;;12.70;84.20;;;;;;5079560;28;20564;-66
2022/03/30 10:56:35;;;;;;;1.20;1.20;;;12.90;83.10;;;;;;5071556;28;20933;-66
2022/03/30 10:59:22;;;;;;;0.40;0.40;;;12.70;82.70;;;;;;5070214;28;20526;-65
2022/03/30 11:02:15;;;;;;;0.40;0.40;;;12.80;83.60;;;;;;5068106;28;20444;-65
2022/03/30 11:05:11;;;;;;;0.40;0.40;;;12.90;82.90;;;;;;5072054;28;20509;-64
2022/03/30 11:07:59;;;;;;;0.40;0.40;;;12.90;82.80;;;;;;5070433;28;20477;-67
2022/03/30 11:10:49;;;;;;;0.40;0.40;;;13.10;83.00;;;;;;5069506;28;20842;-64
2022/03/30 11:13:36;;;;;;;0.40;0.40;;;13.40;83.20;;;;;;5068777;28;21372;-65
2022/03/30 11:16:23;;;;;;;0.40;0.40;;;13.50;82.90;;;;;;5070481;28;20460;-64
2022/03/30 11:19:10;;;;;;;0.40;0.40;;;13.70;81.60;;;;;;5073200;28;20954;-64
2022/03/30 11:22:10;;;;;;;0.40;0.40;;;14.00;80.70;;;;;;5068732;28;20462;-64
2022/03/30 11:25:09;;;;;;;0.40;0.40;;;14.00;79.70;;;;;;5073194;28;20556;-64
2022/03/30 11:28:16;;;;;;;0.40;0.40;;;14.40;81.00;;;;;;5064518;28;20946;-67
2022/03/30 11:31:05;;;;;;;0.40;0.40;;;14.60;78.90;;;;;;5082699;28;20448;-65
2022/03/30 11:34:30;;;;;;;0.40;0.40;;;14.80;79.70;;;;;;5085376;28;20470;-67
2022/03/30 11:37:18;;;;;;;0.40;0.40;;;15.10;78.20;;;;;;5091108;28;20265;-65
2022/03/30 11:40:08;;;;;;;0.40;0.40;;;15.00;75.80;;;;;;5090241;28;20440;-65
2022/03/30 11:42:59;;;;;;;0.40;0.40;;;15.10;76.20;;;;;;5091353;28;20447;-65
2022/03/30 11:45:49;;;;;;;0.40;0.40;;;15.00;75.40;;;;;;5087752;28;20474;-68
2022/03/30 11:48:39;;;;;;;0.70;0.70;;;15.00;75.60;;;;;;5087283;28;20943;-65
2022/03/30 11:51:27;;;;;;;0.40;0.40;;;15.00;75.40;;;;;;5084483;28;21080;-66
2022/03/30 11:54:15;;;;;;;0.40;0.40;;;15.00;74.00;;;;;;5067606;28;20853;-64
2022/03/30 11:57:03;;;;;;;0.40;0.40;;;15.00;73.70;;;;;;5071791;28;20741;-65
2022/03/30 11:59:54;;;;;;;0.40;0.40;;;14.80;73.30;;;;;;5076317;28;20287;-66
2022/03/30 12:02:45;;;;;;;0.40;0.40;;;14.90;73.80;;;;;;5080513;28;20436;-66
2022/03/30 12:05:32;;;;;;;0.40;0.40;;;15.10;74.60;;;;;;5078189;28;20210;-65
2022/03/30 12:08:19;;;;;;;0.40;0.40;;;15.40;72.90;;;;;;5069506;28;20201;-65
2022/03/30 12:11:07;;;;;;;0.40;0.40;;;15.50;72.20;;;;;;5078228;28;20224;-65
2022/03/30 12:13:59;;;;;;;0.40;0.40;;;15.50;71.70;;;;;;5067730;28;20205;-66
2022/03/30 12:16:46;;;;;;;0.40;0.40;;;15.50;71.90;;;;;;5075405;28;20290;-64
2022/03/30 12:19:34;;;;;;;0.40;0.40;;;15.60;71.10;;;;;;5078663;22;20230;-66
2022/03/30 12:22:22;;;;;;;0.40;0.40;;;15.10;70.40;;;;;;5040909;28;20432;-68
2022/03/30 12:25:19;;;;;;;0.40;0.40;;;15.10;71.60;;;;;;5049539;28;20218;-67
2022/03/30 12:28:06;;;;;;;0.40;0.40;;;15.00;71.70;;;;;;5049986;28;20442;-68
2022/03/30 12:30:54;;;;;;;0.93;0.93;;;15.10;71.60;;;;;;5038051;28;20433;-68
2022/03/30 12:33:46;;;;;;;0.50;0.50;;;15.20;71.40;;;;;;5038503;28;20432;-68
2022/03/30 12:36:41;;;;;;;0.50;0.50;;;15.10;70.30;;;;;;5024708;28;20249;-67
2022/03/30 12:39:34;;;;;;;0.40;0.40;;;14.90;70.20;;;;;;5034682;28;20215;-70
2022/03/30 12:42:25;;;;;;;0.40;0.40;;;14.70;69.80;;;;;;5041430;28;20449;-68
2022/03/30 12:45:14;;;;;;;0.50;0.50;;;14.60;70.50;;;;;;5030638;28;20397;-69
2022/03/30 12:48:02;;;;;;;0.50;0.50;;;14.30;70.70;;;;;;5035393;28;20524;-67
2022/03/30 12:50:49;;;;;;;0.40;0.40;;;14.30;71.10;;;;;;5036432;28;20424;-68
2022/03/30 12:53:39;;;;;;;0.40;0.40;;;14.40;69.90;;;;;;5040968;28;20433;-68
2022/03/30 12:56:25;;;;;;;0.40;0.40;;;14.50;69.90;;;;;;5042869;28;20198;-68
2022/03/30 12:59:19;;;;;;;1.13;1.13;;;14.60;69.90;;;;;;5026176;28;20238;-70
2022/03/30 13:02:20;;;;;;;0.50;0.50;;;14.70;68.20;;;;;;5021446;28;20260;-69
2022/03/30 13:05:08;;;;;;;0.40;0.40;;;14.80;69.50;;;;;;5026168;28;20210;-68
2022/03/30 13:07:55;;;;;;;0.50;0.50;;;15.20;68.40;;;;;;5024041;28;20210;-69
2022/03/30 13:10:52;;;;;;;0.40;0.40;;;15.30;67.60;;;;;;5030887;28;20205;-67
2022/03/30 13:13:43;;;;;;;0.40;0.40;;;15.20;67.00;;;;;;5031143;28;20281;-67
2022/03/30 13:16:30;;;;;;;0.40;0.40;;;14.90;66.80;;;;;;5031204;28;20198;-68
2022/03/30 13:19:18;;;;;;;0.50;0.50;;;14.50;68.30;;;;;;5025519;28;20465;-70
2022/03/30 13:22:07;;;;;;;0.50;0.50;;;14.50;69.30;;;;;;5034459;28;20444;-66
2022/03/30 13:24:54;;;;;;;0.50;0.50;;;14.60;68.80;;;;;;5029080;28;20480;-69
2022/03/30 13:27:42;;;;;;;0.40;0.40;;;14.70;67.60;;;;;;5037387;28;20247;-68
2022/03/30 13:30:29;;;;;;;0.40;0.40;;;14.70;67.10;;;;;;5033343;28;20207;-68
2022/03/30 13:33:17;;;;;;;0.40;0.40;;;14.60;67.00;;;;;;5032983;28;20206;-67
2022/03/30 13:36:05;;;;;;;0.40;0.40;;;14.40;66.50;;;;;;5035348;28;20194;-69
2022/03/30 13:38:55;;;;;;;0.40;0.40;;;13.90;66.10;;;;;;5031172;28;20437;-66
2022/03/30 13:41:42;;;;;;;0.50;0.50;;;13.70;66.40;;;;;;5031583;28;20425;-69
2022/03/30 13:44:31;;;;;;;0.40;0.40;;;13.50;67.40;;;;;;5033840;28;20429;-69
2022/03/30 13:47:18;;;;;;;0.40;0.40;;;13.40;67.40;;;;;;5030654;28;20433;-67
2022/03/30 13:50:06;;;;;;;0.50;0.50;;;13.40;67.20;;;;;;5031801;28;20941;-69
2022/03/30 13:52:53;;;;;;;0.40;0.40;;;13.20;67.50;;;;;;5030238;28;20452;-71
2022/03/30 13:55:40;;;;;;;0.40;0.40;;;13.00;68.20;;;;;;5038142;28;20510;-68
2022/03/30 13:58:29;;;;;;;0.50;0.50;;;12.60;67.10;;;;;;5033989;28;20950;-68
2022/03/30 14:01:18;;;;;;;0.50;0.50;;;12.50;68.30;;;;;;5027612;28;20441;-68
2022/03/30 14:04:06;;;;;;;0.50;0.50;;;12.50;68.70;;;;;;5039164;28;20520;-67
2022/03/30 14:06:53;;;;;;;0.60;0.60;;;12.40;69.00;;;;;;5033094;28;20840;-70
2022/03/30 14:09:41;;;;;;;0.50;0.50;;;12.50;69.50;;;;;;5037144;28;20445;-68
2022/03/30 14:12:28;;;;;;;0.50;0.50;;;12.60;69.60;;;;;;5032126;28;20814;-69
2022/03/30 14:15:15;;;;;;;0.40;0.40;;;12.70;70.40;;;;;;5032749;28;20433;-68
2022/03/30 14:18:04;;;;;;;0.50;0.50;;;12.70;70.30;;;;;;5030910;28;20428;-67
2022/03/30 14:20:51;;;;;;;0.50;0.50;;;12.40;70.50;;;;;;5033126;28;20957;-68
2022/03/30 14:23:39;;;;;;;0.50;0.50;;;12.20;70.80;;;;;;5032355;28;20436;-69
2022/03/30 14:26:25;;;;;;;0.50;0.50;;;12.00;71.50;;;;;;5033563;28;20475;-71
2022/03/30 14:29:12;;;;;;;0.40;0.40;;;11.90;72.50;;;;;;5027267;28;20480;-68
2022/03/30 14:31:59;;;;;;;1.60;1.50;;;11.80;73.80;;;;;;5030699;28;20425;-67
2022/03/30 14:34:50;;;;;;;0.60;0.60;;;11.70;74.30;;;;;;5026346;28;20799;-68
2022/03/30 14:37:37;;;;;;;0.50;0.50;;;11.60;74.70;;;;;;5033571;28;20422;-69
2022/03/30 14:40:24;;;;;;;0.50;0.50;;;11.50;75.60;;;;;;5034316;28;20425;-70
2022/03/30 14:43:11;;;;;;;0.40;0.40;;;11.50;76.40;;;;;;5033774;28;20938;-68
2022/03/30 14:45:58;;;;;;;0.50;0.50;;;11.60;76.20;;;;;;5033200;28;20476;-70
2022/03/30 14:48:45;;;;;;;0.50;0.50;;;11.60;76.40;;;;;;5033317;28;20450;-69
2022/03/30 14:51:35;;;;;;;0.50;0.50;;;11.60;76.20;;;;;;5031946;28;20568;-68
2022/03/30 14:54:22;;;;;;;0.50;0.50;;;11.70;76.50;;;;;;5011832;28;20946;-68